createdAt,value
2017-10-25T00:00:07.571Z,21.4
2017-10-25T00:02:07.427Z,21.4
2017-10-25T00:04:05.107Z,21.4
2017-10-25T00:06:04.816Z,21.4
2017-10-25T00:08:13.126Z,21.4
2017-10-25T00:10:07.418Z,21.4
2017-10-25T00:12:05.119Z,21.4
2017-10-25T00:14:04.905Z,21.5
2017-10-25T00:16:05.256Z,21.4
2017-10-25T00:18:05.152Z,21.4
2017-10-25T00:20:04.994Z,21.4
2017-10-25T00:22:04.714Z,21.4
2017-10-25T00:24:07.914Z,21.4
2017-10-25T00:26:07.171Z,21.4
2017-10-25T00:28:07.447Z,21.4
2017-10-25T00:30:05.141Z,21.4
2017-10-25T00:32:14.962Z,21.4
2017-10-25T00:34:04.684Z,21.4
2017-10-25T00:36:05.381Z,21.4
2017-10-25T00:38:05.244Z,21.4
2017-10-25T00:40:07.522Z,21.4
2017-10-25T00:42:05.236Z,21.4
2017-10-25T00:44:04.960Z,21.4
2017-10-25T00:46:07.270Z,21.4
2017-10-25T00:48:07.456Z,21.5
2017-10-25T00:50:07.254Z,21.4
2017-10-25T00:52:09.984Z,21.4
2017-10-25T00:54:07.219Z,21.4
2017-10-25T00:56:05.025Z,21.4
2017-10-25T00:58:05.303Z,21.4
2017-10-25T01:00:05.082Z,21.4
2017-10-25T01:02:04.862Z,21.4
2017-10-25T01:04:05.539Z,21.4
2017-10-25T01:06:07.891Z,21.4
2017-10-25T01:08:05.666Z,21.4
2017-10-25T01:10:05.479Z,21.4
2017-10-25T01:12:04.726Z,21.4
2017-10-25T01:14:07.969Z,21.4
2017-10-25T01:16:04.642Z,21.4
2017-10-25T01:18:05.526Z,21.4
2017-10-25T01:20:05.315Z,21.4
2017-10-25T01:22:05.093Z,21.4
2017-10-25T01:24:04.784Z,21.4
2017-10-25T01:26:05.665Z,21.4
2017-10-25T01:28:05.380Z,21.4
2017-10-25T01:30:10.223Z,21.4
2017-10-25T01:32:07.497Z,21.4
2017-10-25T01:34:05.266Z,21.4
2017-10-25T01:36:05.479Z,21.4
2017-10-25T01:38:04.762Z,21.4
2017-10-25T01:40:05.453Z,21.4
2017-10-25T01:42:07.757Z,21.4
2017-10-25T01:44:05.571Z,21.4
2017-10-25T01:46:05.246Z,21.4
2017-10-25T01:48:04.941Z,21.4
2017-10-25T01:50:05.235Z,21.4
2017-10-25T01:52:04.939Z,21.4
2017-10-25T01:54:04.654Z,21.4
2017-10-25T01:56:05.456Z,21.4
2017-10-25T01:58:07.706Z,21.4
2017-10-25T02:00:05.477Z,21.4
2017-10-25T02:02:04.897Z,21.5
2017-10-25T02:04:05.587Z,21.4
2017-10-25T02:06:05.307Z,21.4
2017-10-25T02:08:05.035Z,21.4
2017-10-25T02:10:04.839Z,21.4
2017-10-25T02:12:08.136Z,21.4
2017-10-25T02:14:04.804Z,21.4
2017-10-25T02:16:05.520Z,21.4
2017-10-25T02:18:05.455Z,21.4
2017-10-25T02:20:07.756Z,21.4
2017-10-25T02:22:05.509Z,21.4
2017-10-25T02:24:05.215Z,21.4
2017-10-25T02:26:10.572Z,21.4
2017-10-25T02:28:05.360Z,21.4
2017-10-25T02:30:05.157Z,21.4
2017-10-25T02:32:04.859Z,21.4
2017-10-25T02:34:05.587Z,21.5
2017-10-25T02:36:05.336Z,21.4
2017-10-25T02:38:08.340Z,21.4
2017-10-25T02:40:05.064Z,21.4
2017-10-25T02:42:05.355Z,21.4
2017-10-25T02:44:07.606Z,21.4
2017-10-25T02:46:05.273Z,21.4
2017-10-25T02:48:07.539Z,21.4
2017-10-25T02:50:12.451Z,21.4
2017-10-25T02:52:08.051Z,21.4
2017-10-25T02:54:07.387Z,21.4
2017-10-25T02:56:05.123Z,21.4
2017-10-25T02:58:04.896Z,21.4
2017-10-25T03:00:05.614Z,21.4
2017-10-25T03:02:07.894Z,21.4
2017-10-25T03:04:04.637Z,21.4
2017-10-25T03:06:04.949Z,21.4
2017-10-25T03:08:07.434Z,21.4
2017-10-25T03:10:07.660Z,21.4
2017-10-25T03:12:05.335Z,21.3
2017-10-25T03:14:05.139Z,21.3
2017-10-25T03:16:05.381Z,21.4
2017-10-25T03:18:05.327Z,21.3
2017-10-25T03:20:08.135Z,21.3
2017-10-25T03:22:05.400Z,21.3
2017-10-25T03:24:05.061Z,21.3
2017-10-25T03:26:04.885Z,21.3
2017-10-25T03:28:05.584Z,21.3
2017-10-25T03:30:07.434Z,21.3
2017-10-25T03:32:05.229Z,21.3
2017-10-25T03:34:07.505Z,21.3
2017-10-25T03:36:05.237Z,21.3
2017-10-25T03:38:04.990Z,21.3
2017-10-25T03:40:05.252Z,21.3
2017-10-25T03:42:04.950Z,21.2
2017-10-25T03:44:04.647Z,21.2
2017-10-25T03:46:05.381Z,21.2
2017-10-25T03:48:10.170Z,21.2
2017-10-25T03:50:04.977Z,21.2
2017-10-25T03:52:04.649Z,21.2
2017-10-25T03:54:10.412Z,21.2
2017-10-25T03:56:05.155Z,21.2
2017-10-25T03:58:04.911Z,21.2
2017-10-25T04:00:04.684Z,21.2
2017-10-25T04:02:05.420Z,21.2
2017-10-25T04:04:05.210Z,21.2
2017-10-25T04:06:04.935Z,21.2
2017-10-25T04:08:07.225Z,21.2
2017-10-25T04:10:04.928Z,21.2
2017-10-25T04:12:04.725Z,21.2
2017-10-25T04:14:10.608Z,21.2
2017-10-25T04:16:05.428Z,21.2
2017-10-25T04:18:05.339Z,21.1
2017-10-25T04:20:10.109Z,21.2
2017-10-25T04:22:05.353Z,21.1
2017-10-25T04:24:05.126Z,21.1
2017-10-25T04:26:04.887Z,21.2
2017-10-25T04:28:08.266Z,21.1
2017-10-25T04:30:10.655Z,21.1
2017-10-25T04:32:07.660Z,21.1
2017-10-25T04:34:04.658Z,21.1
2017-10-25T04:36:07.909Z,21.1
2017-10-25T04:38:07.215Z,21.1
2017-10-25T04:40:04.916Z,21.1
2017-10-25T04:42:05.355Z,21.1
2017-10-25T04:44:05.743Z,21.1
2017-10-25T04:46:05.571Z,21.1
2017-10-25T04:48:04.819Z,21.1
2017-10-25T04:50:05.557Z,21.2
2017-10-25T04:52:05.551Z,21.2
2017-10-25T04:54:05.482Z,21.2
2017-10-25T04:56:07.921Z,21.2
2017-10-25T04:58:04.701Z,21.2
2017-10-25T05:00:10.485Z,21.2
2017-10-25T05:02:07.851Z,21.2
2017-10-25T05:04:05.625Z,21.2
2017-10-25T05:06:05.340Z,21.2
2017-10-25T05:08:05.252Z,21.2
2017-10-25T05:10:07.679Z,21.2
2017-10-25T05:12:08.184Z,21.3
2017-10-25T05:14:04.920Z,21.2
2017-10-25T05:16:04.632Z,21.2
2017-10-25T05:18:05.580Z,21.3
2017-10-25T05:20:07.935Z,21.3
2017-10-25T05:22:05.187Z,21.3
2017-10-25T05:24:04.960Z,21.3
2017-10-25T05:26:07.304Z,21.3
2017-10-25T05:28:07.542Z,21.3
2017-10-25T05:30:10.355Z,21.3
2017-10-25T05:32:05.068Z,21.3
2017-10-25T05:34:04.775Z,21.3
2017-10-25T05:36:05.583Z,21.3
2017-10-25T05:38:12.452Z,21.3
2017-10-25T05:40:07.826Z,21.3
2017-10-25T05:42:05.637Z,21.3
2017-10-25T05:44:07.405Z,21.3
2017-10-25T05:46:05.140Z,21.3
2017-10-25T05:48:05.371Z,21.3
2017-10-25T05:50:05.265Z,21.3
2017-10-25T05:52:07.554Z,21.3
2017-10-25T05:54:05.280Z,21.3
2017-10-25T05:56:05.637Z,21.3
2017-10-25T05:58:08.120Z,21.3
2017-10-25T06:00:04.854Z,21.3
2017-10-25T06:02:10.779Z,21.3
2017-10-25T06:04:05.476Z,21.3
2017-10-25T06:06:10.486Z,21.3
2017-10-25T06:08:05.427Z,21.3
2017-10-25T06:10:05.254Z,21.3
2017-10-25T06:12:05.001Z,21.3
2017-10-25T06:14:04.699Z,21.3
2017-10-25T06:16:05.465Z,21.3
2017-10-25T06:18:05.388Z,21.3
2017-10-25T06:20:05.243Z,21.3
2017-10-25T06:22:07.565Z,21.3
2017-10-25T06:24:07.840Z,21.2
2017-10-25T06:26:05.530Z,21.2
2017-10-25T06:28:08.836Z,21.2
2017-10-25T06:30:05.614Z,21.2
2017-10-25T06:32:04.873Z,21.2
2017-10-25T06:34:05.679Z,21.2
2017-10-25T06:36:05.383Z,21.2
2017-10-25T06:38:04.910Z,21.2
2017-10-25T06:40:04.612Z,21.2
2017-10-25T06:42:05.326Z,21.2
2017-10-25T06:44:05.070Z,21.2
2017-10-25T06:46:04.817Z,21.2
2017-10-25T06:48:05.552Z,21.2
2017-10-25T06:50:05.316Z,21.2
2017-10-25T06:52:05.084Z,21.2
2017-10-25T06:54:04.875Z,21.2
2017-10-25T06:56:05.631Z,21.2
2017-10-25T06:58:05.364Z,21.2
2017-10-25T07:00:04.628Z,21.2
2017-10-25T07:02:05.355Z,21.2
2017-10-25T07:04:05.109Z,21.2
2017-10-25T07:06:04.826Z,21.2
2017-10-25T07:08:10.626Z,21.2
2017-10-25T07:10:05.435Z,21.2
2017-10-25T07:12:05.284Z,21.2
2017-10-25T07:14:07.772Z,21.3
2017-10-25T07:16:05.472Z,21.3
2017-10-25T07:18:05.396Z,21.3
2017-10-25T07:20:05.104Z,21.3
2017-10-25T07:22:04.834Z,21.3
2017-10-25T07:24:05.538Z,21.3
2017-10-25T07:26:04.749Z,21.3
2017-10-25T07:28:10.599Z,21.3
2017-10-25T07:30:05.383Z,21.3
2017-10-25T07:32:07.173Z,21.3
2017-10-25T07:34:07.391Z,21.3
2017-10-25T07:36:05.091Z,21.3
2017-10-25T07:38:04.833Z,21.3
2017-10-25T07:40:05.524Z,21.3
2017-10-25T07:42:04.746Z,21.3
2017-10-25T07:44:05.589Z,21.4
2017-10-25T07:46:05.315Z,21.4
2017-10-25T07:48:07.553Z,21.5
2017-10-25T07:50:05.385Z,21.5
2017-10-25T07:52:05.093Z,21.5
2017-10-25T07:54:07.864Z,21.5
2017-10-25T07:56:07.182Z,21.5
2017-10-25T07:58:07.987Z,21.5
2017-10-25T08:00:04.695Z,21.5
2017-10-25T08:02:05.421Z,21.5
2017-10-25T08:04:05.126Z,21.5
2017-10-25T08:06:04.896Z,21.5
2017-10-25T08:08:04.765Z,21.5
2017-10-25T08:10:08.137Z,21.5
2017-10-25T08:12:07.359Z,21.5
2017-10-25T08:14:07.608Z,21.4
2017-10-25T08:16:10.412Z,21.4
2017-10-25T08:18:05.446Z,21.4
2017-10-25T08:20:05.264Z,21.5
2017-10-25T08:22:05.463Z,21.5
2017-10-25T08:24:07.815Z,21.5
2017-10-25T08:26:13.220Z,21.4
2017-10-25T08:28:07.566Z,21.4
2017-10-25T08:30:05.386Z,21.4
2017-10-25T08:32:04.675Z,21.4
2017-10-25T08:34:04.967Z,21.4
2017-10-25T08:36:04.731Z,21.4
2017-10-25T08:38:05.495Z,21.4
2017-10-25T08:40:05.233Z,21.4
2017-10-25T08:42:04.924Z,21.4
2017-10-25T08:44:04.754Z,21.4
2017-10-25T08:46:08.062Z,21.4
2017-10-25T08:48:07.365Z,21.4
2017-10-25T08:50:05.224Z,21.4
2017-10-25T08:52:04.986Z,21.4
2017-10-25T08:54:04.776Z,21.4
2017-10-25T08:56:05.562Z,21.4
2017-10-25T08:58:07.827Z,21.4
2017-10-25T09:00:05.557Z,21.4
2017-10-25T09:02:05.317Z,21.4
2017-10-25T09:04:07.557Z,21.4
2017-10-25T09:06:07.630Z,21.4
2017-10-25T09:08:08.043Z,21.5
2017-10-25T09:10:04.826Z,21.5
2017-10-25T09:12:08.084Z,21.5
2017-10-25T09:14:09.896Z,21.6
2017-10-25T09:16:05.714Z,21.6
2017-10-25T09:18:07.197Z,21.6
2017-10-25T09:20:07.529Z,21.7
2017-10-25T09:22:05.236Z,21.7
2017-10-25T09:24:04.914Z,21.7
2017-10-25T09:26:05.635Z,21.7
2017-10-25T09:28:07.854Z,21.7
2017-10-25T09:30:05.538Z,21.7
2017-10-25T09:32:05.467Z,21.7
2017-10-25T09:34:05.272Z,21.7
2017-10-25T09:36:07.737Z,21.6
2017-10-25T09:38:05.479Z,21.6
2017-10-25T09:40:05.292Z,21.7
2017-10-25T09:42:07.615Z,21.7
2017-10-25T09:44:05.424Z,21.6
2017-10-25T09:46:05.191Z,21.6
2017-10-25T09:48:07.429Z,21.6
2017-10-25T09:50:04.655Z,21.7
2017-10-25T09:52:05.371Z,21.6
2017-10-25T09:54:05.065Z,21.6
2017-10-25T09:56:04.773Z,21.6
2017-10-25T09:58:05.465Z,21.6
2017-10-25T10:00:04.865Z,21.6
2017-10-25T10:02:04.740Z,21.6
2017-10-25T10:04:05.508Z,21.6
2017-10-25T10:06:04.921Z,21.6
2017-10-25T10:08:09.767Z,21.6
2017-10-25T10:10:13.105Z,21.6
2017-10-25T10:12:04.894Z,21.6
2017-10-25T10:14:09.941Z,21.6
2017-10-25T10:16:07.210Z,21.6
2017-10-25T10:18:07.639Z,21.6
2017-10-25T10:20:05.104Z,21.6
2017-10-25T10:22:04.837Z,21.6
2017-10-25T10:24:05.536Z,21.6
2017-10-25T10:26:04.865Z,21.6
2017-10-25T10:28:05.606Z,21.6
2017-10-25T10:30:05.415Z,21.6
2017-10-25T10:32:05.382Z,21.6
2017-10-25T10:34:07.636Z,21.6
2017-10-25T10:36:05.376Z,21.6
2017-10-25T10:38:04.636Z,21.6
2017-10-25T10:40:05.377Z,21.6
2017-10-25T10:42:05.567Z,21.5
2017-10-25T10:44:04.828Z,21.6
2017-10-25T10:46:10.587Z,21.6
2017-10-25T10:48:05.262Z,21.6
2017-10-25T10:50:04.996Z,21.6
2017-10-25T10:52:04.678Z,21.6
2017-10-25T10:54:04.907Z,21.6
2017-10-25T10:56:05.238Z,21.6
2017-10-25T10:58:07.465Z,21.6
2017-10-25T11:00:12.757Z,21.6
2017-10-25T11:02:08.165Z,21.6
2017-10-25T11:04:04.915Z,21.6
2017-10-25T11:06:04.632Z,21.6
2017-10-25T11:08:05.338Z,21.6
2017-10-25T11:10:05.077Z,21.6
2017-10-25T11:12:04.905Z,21.6
2017-10-25T11:14:10.052Z,21.6
2017-10-25T11:16:04.850Z,21.6
2017-10-25T11:18:07.405Z,21.6
2017-10-25T11:20:05.124Z,21.6
2017-10-25T11:22:04.819Z,21.6
2017-10-25T11:24:08.057Z,21.6
2017-10-25T11:26:04.815Z,21.6
2017-10-25T11:28:05.133Z,21.6
2017-10-25T11:30:07.340Z,21.6
2017-10-25T11:32:05.234Z,21.6
2017-10-25T11:34:05.462Z,21.6
2017-10-25T11:36:05.162Z,21.6
2017-10-25T11:38:07.551Z,21.6
2017-10-25T11:40:05.241Z,21.5
2017-10-25T11:42:05.079Z,21.5
2017-10-25T11:44:07.463Z,21.6
2017-10-25T11:46:05.187Z,21.6
2017-10-25T11:48:05.007Z,21.5
2017-10-25T11:50:04.730Z,21.5
2017-10-25T11:52:07.974Z,21.6
2017-10-25T11:54:05.242Z,21.5
2017-10-25T11:56:12.638Z,21.5
2017-10-25T11:58:05.395Z,21.5
2017-10-25T12:00:04.687Z,21.6
2017-10-25T12:02:05.472Z,21.6
2017-10-25T12:04:05.207Z,21.5
2017-10-25T12:06:05.367Z,21.5
2017-10-25T12:08:07.852Z,21.5
2017-10-25T12:10:05.644Z,21.5
2017-10-25T12:12:05.394Z,21.5
2017-10-25T12:14:07.674Z,21.6
2017-10-25T12:16:05.349Z,21.6
2017-10-25T12:18:05.275Z,21.6
2017-10-25T12:20:05.550Z,21.6
2017-10-25T12:22:05.254Z,21.6
2017-10-25T12:24:04.985Z,21.5
2017-10-25T12:26:04.796Z,21.6
2017-10-25T12:28:05.498Z,21.6
2017-10-25T12:30:04.933Z,21.6
2017-10-25T12:32:07.824Z,21.6
2017-10-25T12:34:15.695Z,21.6
2017-10-25T12:36:05.398Z,21.6
2017-10-25T12:38:05.217Z,21.6
2017-10-25T12:40:04.974Z,21.6
2017-10-25T12:42:04.782Z,21.6
2017-10-25T12:44:05.535Z,21.6
2017-10-25T12:46:04.768Z,21.6
2017-10-25T12:48:13.102Z,21.6
2017-10-25T12:50:04.994Z,21.6
2017-10-25T12:52:09.844Z,21.6
2017-10-25T12:54:05.544Z,21.6
2017-10-25T12:56:07.800Z,21.7
2017-10-25T12:58:08.003Z,21.7
2017-10-25T13:00:04.746Z,21.7
2017-10-25T13:02:05.449Z,21.7
2017-10-25T13:04:07.209Z,21.7
2017-10-25T13:06:10.073Z,21.7
2017-10-25T13:08:07.354Z,21.7
2017-10-25T13:10:05.004Z,21.7
2017-10-25T13:12:07.202Z,21.8
2017-10-25T13:14:07.618Z,21.7
2017-10-25T13:16:05.301Z,21.7
2017-10-25T13:18:07.376Z,21.7
2017-10-25T13:20:04.669Z,21.7
2017-10-25T13:22:05.423Z,21.7
2017-10-25T13:24:10.214Z,21.6
2017-10-25T13:26:04.992Z,21.7
2017-10-25T13:28:07.169Z,21.7
2017-10-25T13:30:04.894Z,21.6
2017-10-25T13:32:08.199Z,21.6
2017-10-25T13:34:07.573Z,21.7
2017-10-25T13:36:05.363Z,21.7
2017-10-25T13:38:10.113Z,21.6
2017-10-25T13:40:04.841Z,21.7
2017-10-25T13:42:05.123Z,21.6
2017-10-25T13:44:04.935Z,21.7
2017-10-25T13:46:07.165Z,21.6
2017-10-25T13:48:04.875Z,21.6
2017-10-25T13:50:07.750Z,21.6
2017-10-25T13:52:05.488Z,21.6
2017-10-25T13:54:07.752Z,21.6
2017-10-25T13:56:05.489Z,21.6
2017-10-25T13:58:04.706Z,21.6
2017-10-25T14:00:13.112Z,21.6
2017-10-25T14:02:10.581Z,21.6
2017-10-25T14:04:07.863Z,21.6
2017-10-25T14:06:05.699Z,21.6
2017-10-25T14:08:08.043Z,21.6
2017-10-25T14:10:04.756Z,21.6
2017-10-25T14:12:04.737Z,21.6
2017-10-25T14:14:05.546Z,21.7
2017-10-25T14:16:13.872Z,21.6
2017-10-25T14:18:09.984Z,21.6
2017-10-25T14:20:04.797Z,21.6
2017-10-25T14:22:05.578Z,21.7
2017-10-25T14:24:07.349Z,21.6
2017-10-25T14:26:05.104Z,21.6
2017-10-25T14:28:04.852Z,21.6
2017-10-25T14:30:04.655Z,21.6
2017-10-25T14:32:05.593Z,21.6
2017-10-25T14:34:05.426Z,21.6
2017-10-25T14:36:07.667Z,21.6
2017-10-25T14:38:05.527Z,21.6
2017-10-25T14:40:05.335Z,21.6
2017-10-25T14:42:05.610Z,21.6
2017-10-25T14:44:05.308Z,21.6
2017-10-25T14:46:05.027Z,21.6
2017-10-25T14:48:04.768Z,21.6
2017-10-25T14:50:05.554Z,21.6
2017-10-25T14:52:12.875Z,21.6
2017-10-25T14:54:05.652Z,21.6
2017-10-25T14:56:05.476Z,21.6
2017-10-25T14:58:05.190Z,21.6
2017-10-25T15:00:04.946Z,21.6
2017-10-25T15:02:09.890Z,21.6
2017-10-25T15:04:05.613Z,21.6
2017-10-25T15:06:05.339Z,21.6
2017-10-25T15:08:05.690Z,21.6
2017-10-25T15:10:05.408Z,21.6
2017-10-25T15:12:09.708Z,21.6
2017-10-25T15:14:05.060Z,21.5
2017-10-25T15:16:04.812Z,21.5
2017-10-25T15:18:04.777Z,21.5
2017-10-25T15:20:05.555Z,21.5
2017-10-25T15:22:12.851Z,21.5
2017-10-25T15:24:05.620Z,21.6
2017-10-25T15:26:05.327Z,21.6
2017-10-25T15:28:05.025Z,21.6
2017-10-25T15:30:04.792Z,21.6
2017-10-25T15:32:05.610Z,21.6
2017-10-25T15:34:07.834Z,21.5
2017-10-25T15:36:05.086Z,21.5
2017-10-25T15:38:07.342Z,21.5
2017-10-25T15:40:05.185Z,21.5
2017-10-25T15:42:05.031Z,21.5
2017-10-25T15:44:04.791Z,21.5
2017-10-25T15:46:05.486Z,21.5
2017-10-25T15:48:05.185Z,21.5
2017-10-25T15:50:05.391Z,21.5
2017-10-25T15:52:05.607Z,21.5
2017-10-25T15:54:05.374Z,21.5
2017-10-25T15:56:05.161Z,21.5
2017-10-25T15:58:09.999Z,21.5
2017-10-25T16:00:04.718Z,21.5
2017-10-25T16:02:05.499Z,21.5
2017-10-25T16:04:05.236Z,21.5
2017-10-25T16:06:04.933Z,21.5
2017-10-25T16:08:04.696Z,21.5
2017-10-25T16:10:04.957Z,21.4
2017-10-25T16:13:08.377Z,21.4
2017-10-25T16:14:12.689Z,21.5
2017-10-25T16:16:05.054Z,21.5
2017-10-25T16:18:07.467Z,21.6
2017-10-25T16:20:05.149Z,21.6
2017-10-25T16:22:04.918Z,21.6
2017-10-25T16:24:04.724Z,21.7
2017-10-25T16:26:05.440Z,21.7
2017-10-25T16:28:05.190Z,21.7
2017-10-25T16:30:05.061Z,21.7
2017-10-25T16:32:05.302Z,21.7
2017-10-25T16:34:05.009Z,21.7
2017-10-25T16:36:04.705Z,21.7
2017-10-25T16:38:05.382Z,21.7
2017-10-25T16:40:05.029Z,21.7
2017-10-25T16:42:04.732Z,21.8
2017-10-25T16:44:05.437Z,21.8
2017-10-25T16:46:10.272Z,21.8
2017-10-25T16:48:08.272Z,21.8
2017-10-25T16:50:04.955Z,21.8
2017-10-25T16:52:04.665Z,21.8
2017-10-25T16:54:18.144Z,21.8
2017-10-25T16:56:04.960Z,21.8
2017-10-25T16:58:17.346Z,21.8
2017-10-25T17:00:07.615Z,21.8
2017-10-25T17:02:05.352Z,21.8
2017-10-25T17:04:04.620Z,21.8
2017-10-25T17:06:05.424Z,21.8
2017-10-25T17:08:05.130Z,21.8
2017-10-25T17:10:04.803Z,21.8
2017-10-25T17:12:11.739Z,21.8
2017-10-25T17:14:05.386Z,21.8
2017-10-25T17:16:05.129Z,21.9
2017-10-25T17:18:07.577Z,22
2017-10-25T17:20:07.792Z,22
2017-10-25T17:22:05.406Z,22
2017-10-25T17:24:07.905Z,22
2017-10-25T17:26:09.728Z,22
2017-10-25T17:28:10.546Z,22
2017-10-25T17:30:05.250Z,22
2017-10-25T17:32:07.528Z,22
2017-10-25T17:34:04.867Z,22
2017-10-25T17:36:05.581Z,22
2017-10-25T17:38:05.388Z,22
2017-10-25T17:40:05.170Z,22
2017-10-25T17:42:04.924Z,22
2017-10-25T17:44:07.174Z,22
2017-10-25T17:46:07.468Z,22
2017-10-25T17:48:05.453Z,22
2017-10-25T17:50:04.789Z,22
2017-10-25T17:52:05.493Z,22
2017-10-25T17:54:12.874Z,22.1
2017-10-25T17:56:05.589Z,22
2017-10-25T17:58:05.343Z,22
2017-10-25T18:00:05.124Z,22
2017-10-25T18:02:04.865Z,22.1
2017-10-25T18:04:07.154Z,22
2017-10-25T18:06:04.909Z,22
2017-10-25T18:08:04.710Z,22
2017-10-25T18:10:10.201Z,22
2017-10-25T18:12:07.801Z,22
2017-10-25T18:14:08.116Z,22.1
2017-10-25T18:16:04.795Z,22.1
2017-10-25T18:18:05.767Z,22.1
2017-10-25T18:20:08.633Z,22.1
2017-10-25T18:22:05.114Z,22
2017-10-25T18:24:10.645Z,22
2017-10-25T18:26:04.916Z,22
2017-10-25T18:28:04.636Z,22.1
2017-10-25T18:30:12.482Z,22
2017-10-25T18:32:05.221Z,22
2017-10-25T18:34:05.018Z,22.1
2017-10-25T18:36:07.486Z,22
2017-10-25T18:38:05.330Z,22
2017-10-25T18:40:05.105Z,22
2017-10-25T18:42:05.038Z,22
2017-10-25T18:44:05.250Z,22
2017-10-25T18:46:04.945Z,22
2017-10-25T18:48:05.339Z,22.1
2017-10-25T18:50:05.015Z,22
2017-10-25T18:52:04.732Z,22
2017-10-25T18:54:05.553Z,22
2017-10-25T18:56:07.904Z,22
2017-10-25T18:58:08.103Z,22
2017-10-25T19:00:07.386Z,22
2017-10-25T19:02:04.709Z,22
2017-10-25T19:04:05.481Z,22
2017-10-25T19:06:06.302Z,22
2017-10-25T19:08:05.005Z,22
2017-10-25T19:10:05.210Z,22
2017-10-25T19:12:07.427Z,22
2017-10-25T19:14:05.104Z,22
2017-10-25T19:16:05.378Z,22
2017-10-25T19:18:07.450Z,22
2017-10-25T19:20:05.234Z,22
2017-10-25T19:22:04.998Z,22
2017-10-25T19:24:04.796Z,22
2017-10-25T19:26:05.650Z,22
2017-10-25T19:28:05.356Z,22
2017-10-25T19:30:07.934Z,22
2017-10-25T19:32:04.720Z,21.9
2017-10-25T19:34:05.477Z,22
2017-10-25T19:36:06.295Z,21.9
2017-10-25T19:38:05.570Z,21.9
2017-10-25T19:40:05.280Z,21.9
2017-10-25T19:42:05.072Z,22
2017-10-25T19:44:04.781Z,22
2017-10-25T19:46:04.696Z,21.9
2017-10-25T19:48:05.724Z,21.9
2017-10-25T19:50:04.681Z,21.9
2017-10-25T19:52:04.984Z,21.9
2017-10-25T19:54:07.232Z,21.9
2017-10-25T19:56:04.903Z,21.9
2017-10-25T19:58:05.695Z,21.9
2017-10-25T20:00:05.468Z,21.9
2017-10-25T20:02:04.860Z,21.9
2017-10-25T20:04:04.668Z,21.9
2017-10-25T20:06:05.070Z,21.9
2017-10-25T20:08:04.807Z,21.9
2017-10-25T20:10:05.527Z,21.9
2017-10-25T20:12:05.300Z,21.9
2017-10-25T20:14:05.337Z,21.9
2017-10-25T20:16:13.609Z,21.9
2017-10-25T20:18:08.208Z,21.9
2017-10-25T20:20:12.598Z,21.9
2017-10-25T20:22:04.988Z,21.9
2017-10-25T20:24:07.369Z,21.9
2017-10-25T20:26:05.101Z,21.9
2017-10-25T20:28:04.874Z,21.9
2017-10-25T20:30:05.194Z,21.8
2017-10-25T20:32:09.955Z,21.8
2017-10-25T20:34:04.693Z,21.8
2017-10-25T20:36:04.927Z,21.8
2017-10-25T20:38:04.645Z,21.8
2017-10-25T20:40:05.331Z,21.8
2017-10-25T20:42:08.439Z,21.8
2017-10-25T20:44:07.744Z,21.8
2017-10-25T20:46:05.503Z,21.8
2017-10-25T20:48:05.611Z,21.8
2017-10-25T20:50:05.420Z,21.8
2017-10-25T20:52:04.700Z,21.8
2017-10-25T20:54:04.971Z,21.8
2017-10-25T20:56:04.668Z,21.8
2017-10-25T20:58:05.610Z,21.8
2017-10-25T21:00:04.925Z,21.8
2017-10-25T21:02:04.647Z,21.8
2017-10-25T21:04:05.409Z,21.8
2017-10-25T21:06:04.703Z,21.8
2017-10-25T21:08:05.523Z,21.8
2017-10-25T21:10:04.814Z,21.8
2017-10-25T21:12:05.595Z,21.8
2017-10-25T21:14:05.362Z,21.8
2017-10-25T21:16:05.102Z,21.8
2017-10-25T21:18:05.195Z,21.8
2017-10-25T21:20:04.924Z,21.8
2017-10-25T21:22:04.899Z,21.8
2017-10-25T21:24:05.631Z,21.8
2017-10-25T21:26:05.337Z,21.8
2017-10-25T21:28:05.275Z,21.8
2017-10-25T21:30:05.029Z,21.8
2017-10-25T21:32:04.822Z,21.8
2017-10-25T21:34:05.110Z,21.8
2017-10-25T21:36:04.939Z,21.8
2017-10-25T21:38:04.665Z,21.8
2017-10-25T21:40:04.984Z,21.8
2017-10-25T21:42:04.700Z,21.8
2017-10-25T21:44:05.425Z,21.8
2017-10-25T21:46:05.145Z,21.8
2017-10-25T21:48:07.450Z,21.9
2017-10-25T21:50:04.614Z,21.8
2017-10-25T21:52:04.880Z,21.8
2017-10-25T21:54:05.031Z,21.8
2017-10-25T21:56:05.520Z,21.8
2017-10-25T21:58:05.234Z,21.8
2017-10-25T22:00:04.980Z,21.8
2017-10-25T22:02:07.250Z,21.8
2017-10-25T22:04:07.604Z,21.8
2017-10-25T22:06:10.527Z,21.8
2017-10-25T22:08:05.211Z,21.8
2017-10-25T22:10:04.937Z,21.8
2017-10-25T22:12:08.018Z,21.8
2017-10-25T22:14:10.345Z,21.8
2017-10-25T22:16:05.067Z,21.8
2017-10-25T22:18:05.125Z,21.8
2017-10-25T22:20:04.838Z,21.8
2017-10-25T22:22:05.095Z,21.8
2017-10-25T22:24:05.411Z,21.8
2017-10-25T22:26:05.322Z,21.8
2017-10-25T22:28:05.091Z,21.8
2017-10-25T22:30:12.955Z,21.8
2017-10-25T22:32:04.673Z,21.8
2017-10-25T22:34:05.421Z,21.8
2017-10-25T22:36:05.168Z,21.8
2017-10-25T22:38:05.285Z,21.8
2017-10-25T22:40:05.542Z,21.8
2017-10-25T22:42:05.319Z,21.8
2017-10-25T22:44:05.016Z,21.8
2017-10-25T22:46:04.773Z,21.8
2017-10-25T22:48:05.475Z,21.8
2017-10-25T22:50:05.227Z,21.8
2017-10-25T22:52:04.916Z,21.8
2017-10-25T22:54:07.357Z,21.7
2017-10-25T22:56:05.160Z,21.7
2017-10-25T22:58:04.882Z,21.7
2017-10-25T23:00:08.114Z,21.7
2017-10-25T23:02:09.863Z,21.7
2017-10-25T23:04:05.145Z,21.7
2017-10-25T23:06:05.057Z,21.7
2017-10-25T23:08:04.798Z,21.7
2017-10-25T23:10:05.612Z,21.7
2017-10-25T23:12:05.386Z,21.7
2017-10-25T23:14:04.913Z,21.8
2017-10-25T23:16:05.201Z,21.7
2017-10-25T23:18:05.143Z,21.7
2017-10-25T23:20:05.275Z,21.7
2017-10-25T23:22:04.964Z,21.7
2017-10-25T23:24:04.700Z,21.7
2017-10-25T23:26:05.453Z,21.7
2017-10-25T23:28:05.181Z,21.7
2017-10-25T23:30:05.455Z,21.7
2017-10-25T23:32:07.731Z,21.7
2017-10-25T23:34:05.445Z,21.7
2017-10-25T23:36:07.885Z,21.7
2017-10-25T23:38:05.593Z,21.7
2017-10-25T23:40:05.280Z,21.7
2017-10-25T23:42:05.600Z,21.7
2017-10-25T23:44:04.831Z,21.7
2017-10-25T23:46:05.174Z,21.7
2017-10-25T23:48:04.879Z,21.7
2017-10-25T23:50:05.119Z,21.7
2017-10-25T23:52:04.830Z,21.7
2017-10-25T23:54:05.677Z,21.7
2017-10-25T23:56:05.007Z,21.7
2017-10-25T23:58:04.734Z,21.7
